createdAt,value
2022-09-15T00:00:18.265Z,11.60
2022-09-15T00:03:01.719Z,10.43
2022-09-15T00:05:46.538Z,10.33
2022-09-15T00:08:29.639Z,10.57
2022-09-15T00:11:17.365Z,10.27
2022-09-15T00:14:03.244Z,12.93
2022-09-15T00:16:46.419Z,11.67
2022-09-15T00:19:29.483Z,12.30
2022-09-15T00:22:14.294Z,11.67
2022-09-15T00:24:57.405Z,11.33
2022-09-15T00:27:40.422Z,12.03
2022-09-15T00:30:24.754Z,10.23
2022-09-15T00:33:08.139Z,10.60
2022-09-15T00:35:53.450Z,9.27
2022-09-15T00:38:40.664Z,9.60
2022-09-15T00:41:25.056Z,18.57
2022-09-15T00:44:23.643Z,10.67
2022-09-15T00:47:19.356Z,16.80
2022-09-15T00:50:07.502Z,13.37
2022-09-15T00:52:56.970Z,9.07
2022-09-15T00:55:45.551Z,9.30
2022-09-15T00:58:34.266Z,13.60
2022-09-15T01:01:19.069Z,10.37
2022-09-15T01:04:02.795Z,10.70
2022-09-15T01:06:51.851Z,9.97
2022-09-15T01:09:39.662Z,13.83
2022-09-15T01:12:25.350Z,13.10
2022-09-15T01:15:09.570Z,9.67
2022-09-15T01:18:11.764Z,11.93
2022-09-15T01:21:04.842Z,9.70
2022-09-15T01:24:27.162Z,11.63
2022-09-15T01:27:42.086Z,15.17
2022-09-15T01:30:27.812Z,9.60
2022-09-15T01:33:22.537Z,13.50
2022-09-15T01:36:10.592Z,11.50
2022-09-15T01:39:01.156Z,23.77
2022-09-15T01:41:48.682Z,11.03
2022-09-15T01:44:36.596Z,17.13
2022-09-15T01:47:22.304Z,9.33
2022-09-15T01:50:11.680Z,9.73
2022-09-15T01:52:58.775Z,13.40
2022-09-15T01:55:45.197Z,13.20
2022-09-15T01:58:28.390Z,13.70
2022-09-15T02:01:17.310Z,10.73
2022-09-15T02:04:07.999Z,18.50
2022-09-15T02:06:56.837Z,14.67
2022-09-15T02:09:46.627Z,10.03
2022-09-15T02:12:36.918Z,11.33
2022-09-15T02:15:27.413Z,9.70
2022-09-15T02:18:14.815Z,10.93
2022-09-15T02:21:10.209Z,12.63
2022-09-15T02:23:58.590Z,10.90
2022-09-15T02:26:44.361Z,12.33
2022-09-15T02:29:29.374Z,21.47
2022-09-15T02:32:15.286Z,9.97
2022-09-15T02:35:00.546Z,12.87
2022-09-15T02:37:45.614Z,13.47
2022-09-15T02:40:30.086Z,12.33
2022-09-15T02:43:15.440Z,13.47
2022-09-15T02:45:58.645Z,9.83
2022-09-15T02:48:41.706Z,13.73
2022-09-15T02:51:24.932Z,13.70
2022-09-15T02:54:12.071Z,14.87
2022-09-15T02:56:55.129Z,15.37
2022-09-15T02:59:51.973Z,12.73
2022-09-15T03:02:35.192Z,14.47
2022-09-15T03:05:20.052Z,10.50
2022-09-15T03:08:03.584Z,14.97
2022-09-15T03:10:47.998Z,20.07
2022-09-15T03:13:31.198Z,13.97
2022-09-15T03:16:18.298Z,12.90
2022-09-15T03:19:02.138Z,13.30
2022-09-15T03:21:45.154Z,18.03
2022-09-15T03:24:28.366Z,13.37
2022-09-15T03:27:12.786Z,13.90
2022-09-15T03:29:55.868Z,14.80
2022-09-15T03:32:39.495Z,14.13
2022-09-15T03:35:22.646Z,17.53
2022-09-15T03:38:05.802Z,16.33
2022-09-15T03:40:58.496Z,17.33
2022-09-15T03:43:43.067Z,15.33
2022-09-15T03:46:26.167Z,15.77
2022-09-15T03:49:09.394Z,14.23
2022-09-15T03:51:52.455Z,17.67
2022-09-15T03:54:35.597Z,13.90
2022-09-15T03:57:18.682Z,10.07
2022-09-15T04:00:03.508Z,11.60
2022-09-15T04:02:46.686Z,13.77
2022-09-15T04:05:30.122Z,12.07
2022-09-15T04:08:14.347Z,13.83
2022-09-15T04:10:57.360Z,20.67
2022-09-15T04:13:41.978Z,12.13
2022-09-15T04:16:27.829Z,13.53
2022-09-15T04:19:11.442Z,19.67
2022-09-15T04:21:54.541Z,16.13
2022-09-15T04:24:37.978Z,15.93
2022-09-15T04:27:21.117Z,14.03
2022-09-15T04:30:06.668Z,16.40
2022-09-15T04:32:51.829Z,16.97
2022-09-15T04:35:34.890Z,19.90
2022-09-15T04:38:18.349Z,12.20
2022-09-15T04:41:01.925Z,16.67
2022-09-15T04:43:45.438Z,13.67
2022-09-15T04:46:28.833Z,13.10
2022-09-15T04:49:13.372Z,14.90
2022-09-15T04:51:56.510Z,16.10
2022-09-15T04:54:39.854Z,16.37
2022-09-15T04:57:22.930Z,13.33
2022-09-15T05:00:07.620Z,18.10
2022-09-15T05:02:50.709Z,19.30
2022-09-15T05:05:36.399Z,20.50
2022-09-15T05:08:19.841Z,14.97
2022-09-15T05:11:04.117Z,12.53
2022-09-15T05:13:47.567Z,15.43
2022-09-15T05:16:32.046Z,17.17
2022-09-15T05:19:15.607Z,16.17
2022-09-15T05:22:02.175Z,13.40
2022-09-15T05:24:46.180Z,26.70
2022-09-15T05:27:32.769Z,19.27
2022-09-15T05:30:36.729Z,24.23
2022-09-15T05:33:19.445Z,17.13
2022-09-15T05:36:02.856Z,14.90
2022-09-15T05:38:47.385Z,20.53
2022-09-15T05:41:31.006Z,23.37
2022-09-15T05:44:14.044Z,17.03
2022-09-15T05:46:57.369Z,19.43
2022-09-15T05:49:40.529Z,16.27
2022-09-15T05:52:23.822Z,25.10
2022-09-15T05:55:10.128Z,13.57
2022-09-15T05:57:53.794Z,19.00
2022-09-15T06:00:37.370Z,16.33
2022-09-15T06:03:21.751Z,16.23
2022-09-15T06:06:07.324Z,27.23
2022-09-15T06:08:58.049Z,22.03
2022-09-15T06:11:43.205Z,26.67
2022-09-15T06:14:26.263Z,16.93
2022-09-15T06:17:09.374Z,20.20
2022-09-15T06:19:52.836Z,14.77
2022-09-15T06:22:35.962Z,21.33
2022-09-15T06:25:19.048Z,15.73
2022-09-15T06:28:03.793Z,29.03
2022-09-15T06:30:49.576Z,27.17
2022-09-15T06:33:32.770Z,20.00
2022-09-15T06:36:16.976Z,26.57
2022-09-15T06:39:00.268Z,30.07
2022-09-15T06:42:01.283Z,35.47
2022-09-15T06:44:47.022Z,48.60
2022-09-15T06:47:34.050Z,54.13
2022-09-15T06:50:17.476Z,37.60
2022-09-15T06:53:00.559Z,46.17
2022-09-15T06:55:43.650Z,33.47
2022-09-15T06:58:26.902Z,47.63
2022-09-15T07:01:13.066Z,25.33
2022-09-15T07:03:57.487Z,26.40
2022-09-15T07:06:41.193Z,25.13
2022-09-15T07:09:24.295Z,14.23
2022-09-15T07:12:07.766Z,13.97
2022-09-15T07:14:50.838Z,14.20
2022-09-15T07:17:37.508Z,20.23
2022-09-15T07:20:20.578Z,15.50
2022-09-15T07:23:03.646Z,16.13
2022-09-15T07:25:46.960Z,19.20
2022-09-15T07:28:30.056Z,22.73
2022-09-15T07:31:15.127Z,16.37
2022-09-15T07:34:01.043Z,10.83
2022-09-15T07:36:44.108Z,19.67
2022-09-15T07:39:27.240Z,15.03
2022-09-15T07:42:10.700Z,18.20
2022-09-15T07:44:53.736Z,18.97
2022-09-15T07:47:36.774Z,17.47
2022-09-15T07:50:21.189Z,14.23
2022-09-15T07:53:04.364Z,19.10
2022-09-15T07:55:47.826Z,22.77
2022-09-15T07:58:30.908Z,17.00
2022-09-15T08:01:16.914Z,19.27
2022-09-15T08:04:00.196Z,12.17
2022-09-15T08:06:44.764Z,17.47
2022-09-15T08:09:27.958Z,22.93
2022-09-15T08:12:10.982Z,25.17
2022-09-15T08:14:54.180Z,18.63
2022-09-15T08:17:37.378Z,20.53
2022-09-15T08:20:21.479Z,17.77
2022-09-15T08:23:06.013Z,20.50
2022-09-15T08:25:51.493Z,15.00
2022-09-15T08:28:36.908Z,14.60
2022-09-15T08:31:20.014Z,20.83
2022-09-15T08:34:06.954Z,23.60
2022-09-15T08:36:52.342Z,16.47
2022-09-15T08:39:37.000Z,20.42
2022-09-15T08:42:24.372Z,19.05
2022-09-15T08:45:19.540Z,22.02
2022-09-15T08:48:08.056Z,24.98
2022-09-15T08:50:55.906Z,25.73
2022-09-15T08:53:46.448Z,17.98
2022-09-15T08:56:33.242Z,26.48
2022-09-15T08:59:18.210Z,34.90
2022-09-15T09:02:43.275Z,20.85
2022-09-15T09:05:45.670Z,42.92
2022-09-15T09:09:13.443Z,40.15
2022-09-15T09:12:16.479Z,46.17
2022-09-15T09:15:15.384Z,21.45
2022-09-15T09:18:15.690Z,20.08
2022-09-15T09:21:06.221Z,18.02
2022-09-15T09:23:56.782Z,16.20
2022-09-15T09:26:40.338Z,15.10
2022-09-15T09:29:34.030Z,18.40
2022-09-15T09:32:22.164Z,19.33
2022-09-15T09:35:14.622Z,18.58
2022-09-15T09:37:57.932Z,13.80
2022-09-15T09:40:41.279Z,22.30
2022-09-15T09:43:24.809Z,14.25
2022-09-15T09:46:16.354Z,21.63
2022-09-15T09:49:05.243Z,16.92
2022-09-15T09:51:53.194Z,14.32
2022-09-15T09:54:37.266Z,19.33
2022-09-15T09:57:29.885Z,17.90
2022-09-15T10:00:33.724Z,22.05
2022-09-15T10:03:19.907Z,19.70
2022-09-15T10:06:06.348Z,19.92
2022-09-15T10:08:58.156Z,22.45
2022-09-15T10:11:46.480Z,25.30
2022-09-15T10:14:34.739Z,18.70
2022-09-15T10:17:22.406Z,23.67
2022-09-15T10:20:22.976Z,11.63
2022-09-15T10:23:23.677Z,20.35
2022-09-15T10:26:36.266Z,13.85
2022-09-15T10:29:20.369Z,20.27
2022-09-15T10:32:21.695Z,18.38
2022-09-15T10:35:13.250Z,18.02
2022-09-15T10:38:05.178Z,29.90
2022-09-15T10:40:56.917Z,20.58
2022-09-15T10:43:48.299Z,21.80
2022-09-15T10:46:46.678Z,15.63
2022-09-15T10:49:49.931Z,20.45
2022-09-15T10:52:49.058Z,27.90
2022-09-15T10:55:52.668Z,16.10
2022-09-15T10:58:51.133Z,17.70
2022-09-15T11:02:12.214Z,19.17
2022-09-15T11:05:20.573Z,21.50
2022-09-15T11:08:32.284Z,14.95
2022-09-15T11:11:22.808Z,16.97
2022-09-15T11:14:19.682Z,20.20
2022-09-15T11:17:14.336Z,21.17
2022-09-15T11:20:13.561Z,21.73
2022-09-15T11:23:02.020Z,30.93
2022-09-15T11:25:52.243Z,30.73
2022-09-15T11:28:41.053Z,25.97
2022-09-15T11:31:28.340Z,20.77
2022-09-15T11:34:21.457Z,28.40
2022-09-15T11:37:11.170Z,16.73
2022-09-15T11:40:09.269Z,23.13
2022-09-15T11:43:00.886Z,18.37
2022-09-15T11:45:50.590Z,24.43
2022-09-15T11:48:41.795Z,21.53
2022-09-15T11:51:28.109Z,21.83
2022-09-15T11:54:18.976Z,21.37
2022-09-15T11:57:02.232Z,21.00
2022-09-15T11:59:54.768Z,17.37
2022-09-15T12:02:45.161Z,16.13
2022-09-15T12:05:33.167Z,17.07
2022-09-15T12:08:20.568Z,40.17
2022-09-15T12:11:09.630Z,42.03
2022-09-15T12:13:53.791Z,22.00
2022-09-15T12:16:38.739Z,28.47
2022-09-15T12:19:42.078Z,16.43
2022-09-15T12:22:29.664Z,15.00
2022-09-15T12:25:18.089Z,19.00
2022-09-15T12:28:38.816Z,20.00
2022-09-15T12:31:39.473Z,20.00
2022-09-15T12:34:37.626Z,19.77
2022-09-15T12:37:26.767Z,19.20
2022-09-15T12:40:42.187Z,30.20
2022-09-15T12:43:25.766Z,14.83
2022-09-15T12:46:19.428Z,20.27
2022-09-15T12:49:04.812Z,21.63
2022-09-15T12:51:50.901Z,18.90
2022-09-15T12:54:35.962Z,27.20
2022-09-15T12:57:24.586Z,21.03
2022-09-15T13:01:06.794Z,19.93
2022-09-15T13:04:25.682Z,20.70
2022-09-15T13:07:37.438Z,23.73
2022-09-15T13:10:47.805Z,24.93
2022-09-15T13:13:38.554Z,17.50
2022-09-15T13:16:30.518Z,19.97
2022-09-15T13:19:20.904Z,24.23
2022-09-15T13:22:14.072Z,22.63
2022-09-15T13:25:02.590Z,17.43
2022-09-15T13:27:48.356Z,18.17
2022-09-15T13:30:42.358Z,14.10
2022-09-15T13:40:58.651Z,15.27
2022-09-15T13:44:15.128Z,16.50
2022-09-15T13:47:14.617Z,23.20
2022-09-15T13:50:10.282Z,23.73
2022-09-15T13:53:29.399Z,21.97
2022-09-15T13:56:20.799Z,19.60
2022-09-15T13:59:11.512Z,19.07
2022-09-15T14:01:59.128Z,32.63
2022-09-15T14:04:43.404Z,30.23
2022-09-15T14:07:27.274Z,37.53
2022-09-15T14:10:27.544Z,20.20
2022-09-15T14:13:17.684Z,28.87
2022-09-15T14:16:03.397Z,28.33
2022-09-15T14:18:47.957Z,29.77
2022-09-15T14:21:36.605Z,22.10
2022-09-15T14:24:26.801Z,23.13
2022-09-15T14:27:11.794Z,22.83
2022-09-15T14:29:57.997Z,26.37
2022-09-15T14:32:47.001Z,23.73
2022-09-15T14:35:36.649Z,23.17
2022-09-15T14:38:24.393Z,22.97
2022-09-15T14:41:07.743Z,20.90
2022-09-15T14:43:50.847Z,21.47
2022-09-15T14:46:39.756Z,18.50
2022-09-15T14:49:24.703Z,24.27
2022-09-15T14:52:24.521Z,19.97
2022-09-15T14:55:13.581Z,43.90
2022-09-15T14:58:00.445Z,21.23
2022-09-15T15:00:54.499Z,20.27
2022-09-15T15:03:46.305Z,16.70
2022-09-15T15:06:35.531Z,17.93
2022-09-15T15:09:25.451Z,26.30
2022-09-15T15:12:18.104Z,21.97
2022-09-15T15:15:01.409Z,28.10
2022-09-15T15:17:49.364Z,16.33
2022-09-15T15:20:34.004Z,26.20
2022-09-15T15:23:23.409Z,21.30
2022-09-15T15:26:34.515Z,29.50
2022-09-15T15:29:39.377Z,21.90
2022-09-15T15:32:25.144Z,26.90
2022-09-15T15:35:18.359Z,33.13
2022-09-15T15:38:06.387Z,35.50
2022-09-15T15:40:49.559Z,28.57
2022-09-15T15:43:34.369Z,23.30
2022-09-15T15:46:49.298Z,25.30
2022-09-15T15:49:33.643Z,25.17
2022-09-15T15:52:16.829Z,27.57
2022-09-15T15:55:00.033Z,74.90
2022-09-15T15:57:43.951Z,23.30
2022-09-15T16:00:33.154Z,29.17
2022-09-15T16:03:19.765Z,27.77
2022-09-15T16:06:04.629Z,28.57
2022-09-15T16:08:48.791Z,28.97
2022-09-15T16:11:32.199Z,38.40
2022-09-15T16:14:15.430Z,47.10
2022-09-15T16:16:58.667Z,34.93
2022-09-15T16:19:43.731Z,36.87
2022-09-15T16:22:28.081Z,44.80
2022-09-15T16:25:17.489Z,31.53
2022-09-15T16:28:01.517Z,45.77
2022-09-15T16:30:45.209Z,37.67
2022-09-15T16:33:28.342Z,29.70
2022-09-15T16:36:14.253Z,35.27
2022-09-15T16:38:57.486Z,31.97
2022-09-15T16:41:40.636Z,44.70
2022-09-15T16:44:23.715Z,58.17
2022-09-15T16:47:07.317Z,43.50
2022-09-15T16:49:51.424Z,22.17
2022-09-15T16:52:35.884Z,26.53
2022-09-15T16:55:24.885Z,28.43
2022-09-15T16:58:08.763Z,34.57
2022-09-15T17:00:53.737Z,38.57
2022-09-15T17:03:36.922Z,42.63
2022-09-15T17:06:21.121Z,27.33
2022-09-15T17:09:06.170Z,34.73
2022-09-15T17:11:51.309Z,47.43
2022-09-15T17:14:34.849Z,32.43
2022-09-15T17:17:25.042Z,34.53
2022-09-15T17:20:08.988Z,30.13
2022-09-15T17:22:53.055Z,28.53
2022-09-15T17:25:48.981Z,32.23
2022-09-15T17:28:34.175Z,33.23
2022-09-15T17:31:21.867Z,31.50
2022-09-15T17:34:05.268Z,23.67
2022-09-15T17:36:48.788Z,27.00
2022-09-15T17:39:34.103Z,35.87
2022-09-15T17:42:18.642Z,52.63
2022-09-15T17:45:04.199Z,50.87
2022-09-15T17:47:47.721Z,34.47
2022-09-15T17:50:35.075Z,42.53
2022-09-15T17:53:21.304Z,30.87
2022-09-15T17:56:04.849Z,43.93
2022-09-15T17:58:51.487Z,56.67
2022-09-15T18:01:34.891Z,41.33
2022-09-15T18:04:18.038Z,38.63
2022-09-15T18:07:01.403Z,42.03
2022-09-15T18:09:44.722Z,37.73
2022-09-15T18:12:27.846Z,34.67
2022-09-15T18:15:16.576Z,29.37
2022-09-15T18:18:02.921Z,43.33
2022-09-15T18:20:46.127Z,30.30
2022-09-15T18:23:33.522Z,37.57
2022-09-15T18:26:19.065Z,21.23
2022-09-15T18:29:05.556Z,28.07
2022-09-15T18:32:02.918Z,27.13
2022-09-15T18:34:46.208Z,31.27
2022-09-15T18:37:29.392Z,29.10
2022-09-15T18:40:17.774Z,23.60
2022-09-15T18:43:02.614Z,27.90
2022-09-15T18:45:46.892Z,24.17
2022-09-15T18:48:36.895Z,25.53
2022-09-15T18:51:34.856Z,22.20
2022-09-15T18:54:35.391Z,25.63
2022-09-15T18:57:19.923Z,21.03
2022-09-15T19:00:06.202Z,25.80
2022-09-15T19:02:49.839Z,22.23
2022-09-15T19:05:34.842Z,17.90
2022-09-15T19:08:18.396Z,26.00
2022-09-15T19:11:02.395Z,19.10
2022-09-15T19:13:45.518Z,27.33
2022-09-15T19:16:56.497Z,19.33
2022-09-15T19:19:40.330Z,28.17
2022-09-15T19:22:24.865Z,18.97
2022-09-15T19:25:12.210Z,22.50
2022-09-15T19:27:57.980Z,28.57
2022-09-15T19:30:41.296Z,27.80
2022-09-15T19:33:28.248Z,21.00
2022-09-15T19:36:27.453Z,29.20
2022-09-15T19:39:15.251Z,21.63
2022-09-15T19:41:58.896Z,25.67
2022-09-15T19:44:43.666Z,24.07
2022-09-15T19:47:30.575Z,27.00
2022-09-15T19:50:16.658Z,28.80
2022-09-15T19:53:00.821Z,24.57
2022-09-15T19:55:52.668Z,34.13
2022-09-15T19:58:37.088Z,26.43
2022-09-15T20:01:21.377Z,23.03
2022-09-15T20:04:06.091Z,20.23
2022-09-15T20:06:50.105Z,23.77
2022-09-15T20:09:34.742Z,26.40
2022-09-15T20:12:32.143Z,21.87
2022-09-15T20:15:16.004Z,30.27
2022-09-15T20:18:00.108Z,30.97
2022-09-15T20:20:43.243Z,33.37
2022-09-15T20:23:26.258Z,27.07
2022-09-15T20:26:12.202Z,27.40
2022-09-15T20:28:56.796Z,20.27
2022-09-15T20:31:39.891Z,19.57
2022-09-15T20:34:24.051Z,27.20
2022-09-15T20:37:08.258Z,20.40
2022-09-15T20:39:53.153Z,33.43
2022-09-15T20:42:40.914Z,19.93
2022-09-15T20:45:25.437Z,21.77
2022-09-15T20:48:09.096Z,22.30
2022-09-15T20:50:52.090Z,13.77
2022-09-15T20:53:37.199Z,16.47
2022-09-15T20:56:24.935Z,15.87
2022-09-15T20:59:10.923Z,16.73
2022-09-15T21:01:55.815Z,18.60
2022-09-15T21:04:39.643Z,24.70
2022-09-15T21:07:23.830Z,28.17
2022-09-15T21:10:09.107Z,22.47
2022-09-15T21:12:52.153Z,24.00
2022-09-15T21:15:35.751Z,21.37
2022-09-15T21:18:20.407Z,21.77
2022-09-15T21:21:06.179Z,28.10
2022-09-15T21:23:51.566Z,20.07
2022-09-15T21:27:00.493Z,26.87
2022-09-15T21:29:44.286Z,25.00
2022-09-15T21:32:27.315Z,21.13
2022-09-15T21:35:12.021Z,22.83
2022-09-15T21:38:00.018Z,16.17
2022-09-15T21:40:48.820Z,26.30
2022-09-15T21:43:35.260Z,32.27
2022-09-15T21:46:21.140Z,20.50
2022-09-15T21:49:05.504Z,25.03
2022-09-15T21:51:53.920Z,21.60
2022-09-15T21:54:37.052Z,28.53
2022-09-15T21:57:21.793Z,20.63
2022-09-15T22:00:06.642Z,28.03
2022-09-15T22:02:54.262Z,32.30
2022-09-15T22:05:37.295Z,26.07
2022-09-15T22:08:22.314Z,16.00
2022-09-15T22:11:05.628Z,14.97
2022-09-15T22:13:48.748Z,27.77
2022-09-15T22:16:32.509Z,24.60
2022-09-15T22:19:15.644Z,23.90
2022-09-15T22:21:58.696Z,17.63
2022-09-15T22:24:43.161Z,18.73
2022-09-15T22:27:27.514Z,20.57
2022-09-15T22:30:11.734Z,13.47
2022-09-15T22:32:54.943Z,23.83
2022-09-15T22:35:37.925Z,14.47
2022-09-15T22:38:22.162Z,16.73
2022-09-15T22:41:09.510Z,20.87
2022-09-15T22:43:52.931Z,19.73
2022-09-15T22:46:39.040Z,16.17
2022-09-15T22:49:22.136Z,19.17
2022-09-15T22:52:05.392Z,16.00
2022-09-15T22:54:48.439Z,23.87
2022-09-15T22:57:32.876Z,17.00
2022-09-15T23:00:16.624Z,24.00
2022-09-15T23:02:59.848Z,23.27
2022-09-15T23:05:42.937Z,19.40
2022-09-15T23:08:26.202Z,26.23
2022-09-15T23:11:11.573Z,19.20
2022-09-15T23:13:56.852Z,29.67
2022-09-15T23:16:40.198Z,18.53
2022-09-15T23:19:23.288Z,22.13
2022-09-15T23:22:06.430Z,15.43
2022-09-15T23:24:49.589Z,21.77
2022-09-15T23:27:32.770Z,17.60
2022-09-15T23:30:17.671Z,15.40
2022-09-15T23:33:00.727Z,10.30
2022-09-15T23:35:43.764Z,15.90
2022-09-15T23:38:26.917Z,17.73
2022-09-15T23:41:10.868Z,14.17
2022-09-15T23:43:53.983Z,20.23
2022-09-15T23:46:38.482Z,26.40
2022-09-15T23:49:21.625Z,22.67
2022-09-15T23:52:05.182Z,26.50
2022-09-15T23:54:48.237Z,17.40
2022-09-15T23:57:31.428Z,26.33
